createdAt,value
2023-03-21T00:00:41.515Z,3.30
2023-03-21T00:01:41.496Z,3.10
2023-03-21T00:02:41.548Z,3.60
2023-03-21T00:03:41.618Z,3.40
2023-03-21T00:04:51.337Z,3.40
2023-03-21T00:05:42.055Z,3.50
2023-03-21T00:06:41.437Z,3.20
2023-03-21T00:07:41.429Z,3.30
2023-03-21T00:08:41.422Z,3.40
2023-03-21T00:09:41.407Z,3.40
2023-03-21T00:10:43.790Z,3.30
2023-03-21T00:11:41.376Z,3.50
2023-03-21T00:12:41.357Z,3.30
2023-03-21T00:13:41.338Z,3.40
2023-03-21T00:14:41.343Z,3.50
2023-03-21T00:15:51.216Z,3.70
2023-03-21T00:16:41.485Z,3.20
2023-03-21T00:17:41.284Z,3.40
2023-03-21T00:18:41.310Z,3.30
2023-03-21T00:19:41.304Z,3.20
2023-03-21T00:20:41.249Z,3.30
2023-03-21T00:21:59.270Z,3.30
2023-03-21T00:22:41.228Z,2.90
2023-03-21T00:23:41.205Z,3.70
2023-03-21T00:24:41.211Z,3.30
2023-03-21T00:25:41.196Z,3.40
2023-03-21T00:26:41.177Z,3.50
2023-03-21T00:28:01.117Z,3.50
2023-03-21T00:28:42.151Z,3.50
2023-03-21T00:29:41.180Z,3.20
2023-03-21T00:30:41.116Z,3.50
2023-03-21T00:31:41.111Z,3.40
2023-03-21T00:32:54.994Z,3.70
2023-03-21T00:33:41.081Z,3.30
2023-03-21T00:34:59.679Z,3.60
2023-03-21T00:35:58.357Z,3.80
2023-03-21T00:36:42.111Z,3.50
2023-03-21T00:37:41.049Z,3.20
2023-03-21T00:38:41.022Z,3.20
2023-03-21T00:39:41.016Z,3.50
2023-03-21T00:40:48.837Z,3.20
2023-03-21T00:41:43.439Z,3.20
2023-03-21T00:42:40.972Z,3.60
2023-03-21T00:43:40.941Z,3.60
2023-03-21T00:44:40.933Z,3.30
2023-03-21T00:45:40.932Z,3.20
2023-03-21T00:46:48.980Z,3.30
2023-03-21T00:47:41.075Z,3.30
2023-03-21T00:48:40.887Z,3.30
2023-03-21T00:49:40.874Z,3.70
2023-03-21T00:50:40.909Z,3.30
2023-03-21T00:51:40.896Z,3.40
2023-03-21T00:52:41.475Z,3.40
2023-03-21T00:53:40.811Z,3.60
2023-03-21T00:54:40.809Z,4.00
2023-03-21T00:55:40.805Z,3.70
2023-03-21T00:56:40.782Z,3.60
2023-03-21T00:57:42.302Z,3.40
2023-03-21T00:58:40.754Z,3.40
2023-03-21T00:59:40.740Z,3.40
2023-03-21T01:00:40.834Z,3.60
2023-03-21T01:01:40.773Z,4.00
2023-03-21T01:02:41.918Z,3.40
2023-03-21T01:03:40.692Z,3.80
2023-03-21T01:04:40.677Z,3.90
2023-03-21T01:05:40.673Z,3.50
2023-03-21T01:06:40.667Z,3.50
2023-03-21T01:07:40.634Z,3.60
2023-03-21T01:08:51.775Z,3.70
2023-03-21T01:09:41.604Z,3.60
2023-03-21T01:10:40.611Z,3.70
2023-03-21T01:11:40.577Z,3.60
2023-03-21T01:12:40.573Z,3.40
2023-03-21T01:13:44.215Z,3.60
2023-03-21T01:14:40.549Z,3.60
2023-03-21T01:15:40.541Z,3.50
2023-03-21T01:16:40.740Z,3.40
2023-03-21T01:17:40.513Z,3.70
2023-03-21T01:18:40.492Z,3.30
2023-03-21T01:19:51.258Z,3.50
2023-03-21T01:20:40.490Z,3.30
2023-03-21T01:21:40.466Z,3.60
2023-03-21T01:22:40.483Z,3.60
2023-03-21T01:23:40.426Z,3.30
2023-03-21T01:24:52.093Z,3.80
2023-03-21T01:25:41.415Z,3.50
2023-03-21T01:26:40.383Z,3.70
2023-03-21T01:27:40.370Z,3.50
2023-03-21T01:28:40.355Z,3.50
2023-03-21T01:29:40.340Z,3.20
2023-03-21T01:30:42.077Z,3.50
2023-03-21T01:31:40.391Z,3.40
2023-03-21T01:32:40.309Z,3.20
2023-03-21T01:33:40.303Z,3.30
2023-03-21T01:34:40.280Z,3.30
2023-03-21T01:35:50.189Z,3.20
2023-03-21T01:36:41.280Z,3.60
2023-03-21T01:37:40.247Z,3.30
2023-03-21T01:38:40.258Z,3.40
2023-03-21T01:39:40.215Z,3.60
2023-03-21T01:40:40.240Z,3.30
2023-03-21T01:41:43.284Z,3.30
2023-03-21T01:42:40.179Z,3.50
2023-03-21T01:43:40.173Z,3.50
2023-03-21T01:44:40.149Z,3.20
2023-03-21T01:45:40.414Z,3.30
2023-03-21T01:46:51.578Z,3.40
2023-03-21T01:47:40.175Z,3.50
2023-03-21T01:48:40.099Z,3.30
2023-03-21T01:49:40.097Z,3.20
2023-03-21T01:50:40.078Z,3.50
2023-03-21T01:51:40.072Z,3.00
2023-03-21T01:52:40.100Z,3.20
2023-03-21T01:53:40.029Z,3.10
2023-03-21T01:54:40.038Z,3.10
2023-03-21T01:55:40.243Z,3.20
2023-03-21T01:56:40.004Z,3.40
2023-03-21T01:57:49.218Z,3.70
2023-03-21T01:58:40.986Z,3.60
2023-03-21T01:59:39.956Z,3.20
2023-03-21T02:00:40.010Z,3.30
2023-03-21T02:01:39.946Z,3.50
2023-03-21T02:02:39.906Z,3.40
2023-03-21T02:03:39.973Z,3.10
2023-03-21T02:04:39.888Z,3.30
2023-03-21T02:05:39.999Z,3.50
2023-03-21T02:06:39.881Z,3.40
2023-03-21T02:07:39.845Z,3.20
2023-03-21T02:08:40.143Z,3.50
2023-03-21T02:09:39.824Z,3.50
2023-03-21T02:10:39.828Z,3.30
2023-03-21T02:11:39.809Z,3.50
2023-03-21T02:12:39.776Z,3.40
2023-03-21T02:13:39.767Z,3.40
2023-03-21T02:14:39.760Z,3.70
2023-03-21T02:15:39.740Z,3.60
2023-03-21T02:16:39.824Z,3.50
2023-03-21T02:17:39.726Z,3.60
2023-03-21T02:18:39.709Z,3.60
2023-03-21T02:19:51.002Z,3.40
2023-03-21T02:20:39.681Z,3.20
2023-03-21T02:21:39.693Z,3.40
2023-03-21T02:22:39.649Z,3.60
2023-03-21T02:23:39.654Z,3.10
2023-03-21T02:24:41.075Z,3.50
2023-03-21T02:25:39.902Z,3.40
2023-03-21T02:26:42.915Z,3.20
2023-03-21T02:27:39.587Z,3.40
2023-03-21T02:28:39.580Z,3.40
2023-03-21T02:29:39.564Z,3.40
2023-03-21T02:30:50.734Z,3.40
2023-03-21T02:31:39.603Z,3.70
2023-03-21T02:32:39.516Z,3.20
2023-03-21T02:33:39.503Z,3.50
2023-03-21T02:34:39.500Z,3.40
2023-03-21T02:35:47.183Z,3.10
2023-03-21T02:39:38.778Z,3.20
2023-03-21T02:40:01.186Z,3.60
2023-03-21T02:41:03.428Z,3.20
2023-03-21T02:42:01.200Z,3.70
2023-03-21T02:43:01.592Z,3.30
2023-03-21T02:44:01.138Z,3.40
2023-03-21T02:45:01.131Z,3.30
2023-03-21T02:46:01.125Z,3.60
2023-03-21T02:47:06.038Z,3.70
2023-03-21T02:48:02.128Z,3.60
2023-03-21T02:49:01.099Z,3.50
2023-03-21T02:50:01.058Z,3.60
2023-03-21T02:51:01.046Z,3.20
2023-03-21T02:52:12.258Z,3.50
2023-03-21T02:53:01.047Z,3.30
2023-03-21T02:54:24.858Z,3.70
2023-03-21T02:55:01.023Z,3.10
2023-03-21T02:56:00.991Z,3.30
2023-03-21T02:57:00.988Z,3.30
2023-03-21T02:58:11.710Z,3.40
2023-03-21T02:59:01.941Z,3.60
2023-03-21T03:00:10.654Z,3.20
2023-03-21T03:01:00.923Z,3.50
2023-03-21T03:02:00.916Z,3.70
2023-03-21T03:03:09.269Z,3.50
2023-03-21T03:04:00.940Z,3.30
2023-03-21T03:05:00.876Z,3.60
2023-03-21T03:06:00.845Z,3.80
2023-03-21T03:07:00.855Z,3.80
2023-03-21T03:08:00.828Z,3.50
2023-03-21T03:09:02.955Z,3.30
2023-03-21T03:10:00.823Z,3.60
2023-03-21T03:11:00.789Z,3.60
2023-03-21T03:12:00.806Z,3.40
2023-03-21T03:13:00.759Z,3.20
2023-03-21T03:14:15.574Z,3.50
2023-03-21T03:15:03.970Z,3.30
2023-03-21T03:16:00.770Z,3.30
2023-03-21T03:17:00.758Z,3.40
2023-03-21T03:18:00.699Z,3.40
2023-03-21T03:19:00.691Z,3.70
2023-03-21T03:20:07.263Z,3.90
2023-03-21T03:21:00.655Z,3.50
2023-03-21T03:22:00.643Z,3.30
2023-03-21T03:23:00.639Z,3.60
2023-03-21T03:24:00.610Z,3.50
2023-03-21T03:25:04.822Z,3.60
2023-03-21T03:26:00.606Z,3.30
2023-03-21T03:27:00.575Z,3.70
2023-03-21T03:28:00.572Z,3.60
2023-03-21T03:29:00.561Z,3.60
2023-03-21T03:30:00.562Z,3.50
2023-03-21T03:31:09.114Z,3.50
2023-03-21T03:32:01.542Z,3.30
2023-03-21T03:33:00.513Z,3.80
2023-03-21T03:34:00.474Z,3.40
2023-03-21T03:35:00.464Z,3.30
2023-03-21T03:36:05.423Z,3.50
2023-03-21T03:37:00.493Z,3.60
2023-03-21T03:38:00.437Z,3.50
2023-03-21T03:39:00.408Z,3.90
2023-03-21T03:40:00.394Z,4.20
2023-03-21T03:41:00.386Z,4.00
2023-03-21T03:42:27.616Z,4.30
2023-03-21T03:43:01.382Z,3.90
2023-03-21T03:44:00.346Z,4.20
2023-03-21T03:45:00.329Z,4.00
2023-03-21T03:46:00.342Z,4.00
2023-03-21T03:47:00.305Z,4.20
2023-03-21T03:48:00.401Z,4.20
2023-03-21T03:49:00.288Z,3.90
2023-03-21T03:50:00.274Z,4.10
2023-03-21T03:51:00.254Z,3.90
2023-03-21T03:52:00.236Z,4.30
2023-03-21T03:53:02.961Z,4.00
2023-03-21T03:54:00.216Z,4.00
2023-03-21T03:55:00.203Z,4.10
2023-03-21T03:56:00.229Z,4.10
2023-03-21T03:57:00.174Z,4.40
2023-03-21T03:58:00.169Z,4.20
2023-03-21T03:59:00.146Z,4.10
2023-03-21T04:00:00.132Z,3.90
2023-03-21T04:01:00.131Z,4.30
2023-03-21T04:02:00.271Z,4.20
2023-03-21T04:03:00.247Z,4.00
2023-03-21T04:04:12.363Z,4.20
2023-03-21T04:05:00.098Z,4.10
2023-03-21T04:06:00.774Z,4.20
2023-03-21T04:07:00.063Z,4.50
2023-03-21T04:08:00.079Z,4.20
2023-03-21T04:09:01.659Z,4.20
2023-03-21T04:10:00.013Z,4.00
2023-03-21T04:11:00.994Z,4.20
2023-03-21T04:11:59.975Z,4.50
2023-03-21T04:12:59.985Z,4.40
2023-03-21T04:13:59.958Z,4.70
2023-03-21T04:15:09.582Z,4.70
2023-03-21T04:15:59.977Z,4.40
2023-03-21T04:16:59.930Z,4.50
2023-03-21T04:17:59.948Z,4.40
2023-03-21T04:18:59.892Z,4.30
2023-03-21T04:20:11.011Z,4.80
2023-03-21T04:20:59.869Z,4.70
2023-03-21T04:21:59.848Z,4.80
2023-03-21T04:22:59.854Z,4.50
2023-03-21T04:23:59.841Z,4.70
2023-03-21T04:25:00.635Z,4.50
2023-03-21T04:25:59.805Z,4.70
2023-03-21T04:26:59.786Z,4.60
2023-03-21T04:27:59.790Z,4.50
2023-03-21T04:28:59.757Z,4.50
2023-03-21T04:29:59.750Z,4.50
2023-03-21T04:31:05.216Z,4.10
2023-03-21T04:31:59.824Z,4.70
2023-03-21T04:32:59.722Z,5.10
2023-03-21T04:33:59.729Z,4.70
2023-03-21T04:34:59.682Z,12.80
2023-03-21T04:35:59.670Z,10.30
2023-03-21T04:36:59.669Z,11.30
2023-03-21T04:37:59.669Z,12.50
2023-03-21T04:38:59.624Z,10.90
2023-03-21T04:39:59.608Z,7.50
2023-03-21T04:40:59.603Z,4.80
2023-03-21T04:41:59.591Z,6.20
2023-03-21T04:42:59.632Z,5.80
2023-03-21T04:43:59.569Z,6.20
2023-03-21T04:44:59.548Z,4.90
2023-03-21T04:45:59.618Z,4.80
2023-03-21T04:46:59.525Z,4.90
2023-03-21T04:47:59.615Z,5.00
2023-03-21T04:48:59.521Z,6.00
2023-03-21T04:49:59.526Z,4.80
2023-03-21T04:50:59.471Z,4.70
2023-03-21T04:51:59.461Z,4.70
2023-03-21T04:52:59.477Z,5.40
2023-03-21T04:53:59.456Z,5.40
2023-03-21T04:54:59.417Z,5.60
2023-03-21T04:55:59.402Z,4.80
2023-03-21T04:56:59.386Z,4.80
2023-03-21T04:57:59.379Z,4.70
2023-03-21T04:58:59.382Z,5.20
2023-03-21T04:59:59.344Z,4.70
2023-03-21T05:00:59.392Z,4.50
2023-03-21T05:01:59.328Z,5.00
2023-03-21T05:02:59.309Z,4.30
2023-03-21T05:03:59.410Z,5.10
2023-03-21T05:04:59.286Z,4.50
2023-03-21T05:05:59.288Z,4.60
2023-03-21T05:06:59.259Z,4.60
2023-03-21T05:07:59.237Z,4.70
2023-03-21T05:08:59.247Z,4.50
2023-03-21T05:10:01.253Z,4.40
2023-03-21T05:10:59.210Z,4.60
2023-03-21T05:11:59.201Z,4.90
2023-03-21T05:12:59.177Z,5.30
2023-03-21T05:13:59.183Z,5.00
2023-03-21T05:14:59.149Z,5.10
2023-03-21T05:15:59.149Z,5.10
2023-03-21T05:16:59.189Z,5.00
2023-03-21T05:17:59.112Z,5.20
2023-03-21T05:18:59.166Z,4.80
2023-03-21T05:19:59.087Z,4.90
2023-03-21T05:20:59.078Z,4.30
2023-03-21T05:21:59.081Z,4.80
2023-03-21T05:22:59.049Z,4.40
2023-03-21T05:23:59.056Z,4.60
2023-03-21T05:24:59.020Z,4.90
2023-03-21T05:25:59.023Z,4.30
2023-03-21T05:27:01.223Z,4.50
2023-03-21T05:27:58.977Z,4.30
2023-03-21T05:28:58.993Z,4.40
2023-03-21T05:29:58.961Z,4.10
2023-03-21T05:30:59.016Z,4.20
2023-03-21T05:31:58.930Z,4.50
2023-03-21T05:32:58.919Z,4.40
2023-03-21T05:33:58.934Z,4.10
2023-03-21T05:34:58.889Z,4.40
2023-03-21T05:35:58.901Z,3.70
2023-03-21T05:36:58.861Z,4.40
2023-03-21T05:37:58.970Z,3.70
2023-03-21T05:38:58.840Z,4.00
2023-03-21T05:39:58.837Z,4.00
2023-03-21T05:40:58.810Z,3.80
2023-03-21T05:41:58.796Z,3.70
2023-03-21T05:42:58.791Z,4.10
2023-03-21T05:43:58.770Z,3.70
2023-03-21T05:44:58.779Z,3.60
2023-03-21T05:45:58.785Z,3.80
2023-03-21T05:46:58.735Z,3.70
2023-03-21T05:47:58.730Z,4.00
2023-03-21T05:48:58.708Z,4.00
2023-03-21T05:49:58.731Z,3.70
2023-03-21T05:50:58.682Z,4.30
2023-03-21T05:51:58.668Z,4.10
2023-03-21T05:52:58.653Z,4.30
2023-03-21T05:53:58.663Z,3.80
2023-03-21T05:54:58.644Z,4.00
2023-03-21T05:55:58.615Z,4.10
2023-03-21T05:56:58.613Z,4.10
2023-03-21T05:57:58.598Z,4.00
2023-03-21T05:58:58.592Z,4.30
2023-03-21T05:59:58.594Z,4.20
2023-03-21T06:00:58.554Z,4.30
2023-03-21T06:01:58.541Z,4.50
2023-03-21T06:02:58.564Z,4.60
2023-03-21T06:03:58.601Z,4.70
2023-03-21T06:04:58.530Z,4.20
2023-03-21T06:05:58.498Z,4.70
2023-03-21T06:06:58.474Z,4.40
2023-03-21T06:07:58.457Z,4.70
2023-03-21T06:08:58.441Z,4.70
2023-03-21T06:09:58.469Z,4.50
2023-03-21T06:10:58.423Z,4.80
2023-03-21T06:11:58.412Z,4.40
2023-03-21T06:12:58.399Z,4.60
2023-03-21T06:13:58.379Z,4.80
2023-03-21T06:14:58.389Z,4.80
2023-03-21T06:15:58.381Z,4.70
2023-03-21T06:16:58.350Z,4.80
2023-03-21T06:17:58.334Z,4.90
2023-03-21T06:18:58.314Z,4.40
2023-03-21T06:19:58.326Z,4.30
2023-03-21T06:20:58.289Z,4.90
2023-03-21T06:21:58.272Z,4.40
2023-03-21T06:22:58.274Z,4.40
2023-03-21T06:23:58.252Z,4.40
2023-03-21T06:24:58.256Z,4.30
2023-03-21T06:25:58.242Z,4.60
2023-03-21T06:26:58.208Z,4.70
2023-03-21T06:27:58.193Z,4.80
2023-03-21T06:28:58.189Z,4.30
2023-03-21T06:29:58.218Z,4.50
2023-03-21T06:30:58.175Z,4.80
2023-03-21T06:31:58.143Z,4.60
2023-03-21T06:32:58.130Z,5.60
2023-03-21T06:33:58.111Z,5.60
2023-03-21T06:34:58.122Z,5.50
2023-03-21T06:35:58.121Z,5.80
2023-03-21T06:36:58.076Z,6.50
2023-03-21T06:37:58.077Z,6.10
2023-03-21T06:38:58.088Z,6.30
2023-03-21T06:39:58.049Z,8.60
2023-03-21T06:40:58.022Z,9.20
2023-03-21T06:41:58.060Z,8.70
2023-03-21T06:42:58.013Z,7.60
2023-03-21T06:43:57.984Z,7.70
2023-03-21T06:44:58.008Z,6.80
2023-03-21T06:45:57.957Z,6.70
2023-03-21T06:46:58.008Z,6.80
2023-03-21T06:47:58.004Z,6.90
2023-03-21T06:48:57.927Z,6.40
2023-03-21T06:49:57.912Z,5.70
2023-03-21T06:50:57.912Z,6.40
2023-03-21T06:51:57.875Z,7.00
2023-03-21T06:52:57.862Z,7.00
2023-03-21T06:53:57.845Z,6.80
2023-03-21T06:54:57.835Z,6.20
2023-03-21T06:55:57.836Z,5.90
2023-03-21T06:56:57.813Z,5.60
2023-03-21T06:57:57.823Z,5.60
2023-03-21T06:58:57.793Z,5.50
2023-03-21T06:59:57.774Z,5.80
2023-03-21T07:00:57.835Z,5.00
2023-03-21T07:01:57.752Z,4.50
2023-03-21T07:02:57.804Z,5.70
2023-03-21T07:03:57.720Z,5.60
2023-03-21T07:04:57.711Z,5.10
2023-03-21T07:05:57.715Z,5.30
2023-03-21T07:06:57.688Z,4.90
2023-03-21T07:07:57.670Z,5.00
2023-03-21T07:08:57.649Z,4.50
2023-03-21T07:09:57.643Z,4.80
2023-03-21T07:10:57.637Z,4.70
2023-03-21T07:11:57.607Z,4.20
2023-03-21T07:12:57.608Z,4.20
2023-03-21T07:13:57.603Z,3.70
2023-03-21T07:14:57.574Z,4.10
2023-03-21T07:15:57.571Z,3.60
2023-03-21T07:16:57.541Z,3.70
2023-03-21T07:17:57.530Z,3.60
2023-03-21T07:18:57.534Z,3.50
2023-03-21T07:19:57.518Z,3.60
2023-03-21T07:20:57.508Z,3.20
2023-03-21T07:21:57.484Z,3.20
2023-03-21T07:22:57.462Z,3.00
2023-03-21T07:23:57.454Z,3.00
2023-03-21T07:25:04.766Z,3.10
2023-03-21T07:25:57.485Z,3.00
2023-03-21T07:26:57.410Z,3.00
2023-03-21T07:27:57.396Z,3.00
2023-03-21T07:28:57.388Z,3.00
2023-03-21T07:29:57.405Z,3.00
2023-03-21T07:30:57.376Z,3.20
2023-03-21T07:31:57.430Z,3.10
2023-03-21T07:32:57.329Z,3.20
2023-03-21T07:33:57.315Z,3.20
2023-03-21T07:34:57.303Z,3.10
2023-03-21T07:35:57.335Z,3.10
2023-03-21T07:36:57.279Z,3.40
2023-03-21T07:37:57.260Z,3.00
2023-03-21T07:38:57.253Z,2.90
2023-03-21T07:39:57.236Z,3.20
2023-03-21T07:40:57.241Z,3.10
2023-03-21T07:41:57.216Z,3.30
2023-03-21T07:42:57.195Z,3.10
2023-03-21T07:43:57.184Z,3.20
2023-03-21T07:44:57.169Z,3.10
2023-03-21T07:45:57.258Z,2.90
2023-03-21T07:46:57.141Z,3.10
2023-03-21T07:47:57.157Z,3.40
2023-03-21T07:48:57.114Z,3.20
2023-03-21T07:49:57.099Z,3.70
2023-03-21T07:50:57.106Z,3.10
2023-03-21T07:51:57.077Z,3.40
2023-03-21T07:52:57.059Z,3.30
2023-03-21T07:53:57.050Z,3.50
2023-03-21T07:54:57.032Z,3.80
2023-03-21T07:55:57.040Z,3.30
2023-03-21T07:56:57.007Z,3.10
2023-03-21T07:57:56.993Z,3.30
2023-03-21T07:58:56.982Z,3.50
2023-03-21T07:59:56.978Z,3.30
2023-03-21T08:00:56.962Z,3.00
2023-03-21T08:01:57.047Z,3.10
2023-03-21T08:02:58.866Z,3.30
2023-03-21T08:03:56.924Z,3.00
2023-03-21T08:04:56.920Z,3.30
2023-03-21T08:05:56.902Z,3.30
2023-03-21T08:06:56.870Z,3.60
2023-03-21T08:07:56.880Z,3.20
2023-03-21T08:08:56.843Z,3.20
2023-03-21T08:09:56.828Z,3.20
2023-03-21T08:10:56.825Z,3.20
2023-03-21T08:11:56.830Z,3.50
2023-03-21T08:12:56.792Z,2.90
2023-03-21T08:13:56.781Z,3.40
2023-03-21T08:14:58.859Z,3.40
2023-03-21T08:15:56.757Z,3.30
2023-03-21T08:16:56.863Z,3.50
2023-03-21T08:17:56.748Z,3.20
2023-03-21T08:18:56.714Z,3.50
2023-03-21T08:19:56.726Z,3.50
2023-03-21T08:20:56.687Z,3.30
2023-03-21T08:21:56.676Z,3.40
2023-03-21T08:22:56.679Z,3.50
2023-03-21T08:23:56.650Z,3.30
2023-03-21T08:24:56.652Z,3.30
2023-03-21T08:25:56.630Z,3.80
2023-03-21T08:26:56.623Z,3.50
2023-03-21T08:27:56.591Z,3.70
2023-03-21T08:28:56.593Z,3.40
2023-03-21T08:29:56.580Z,3.80
2023-03-21T08:30:56.618Z,3.60
2023-03-21T08:31:56.548Z,3.40
2023-03-21T08:32:58.789Z,3.60
2023-03-21T08:33:56.548Z,3.50
2023-03-21T08:34:56.525Z,3.60
2023-03-21T08:35:56.516Z,3.60
2023-03-21T08:36:56.505Z,3.70
2023-03-21T08:37:56.469Z,3.80
2023-03-21T08:38:56.446Z,4.00
2023-03-21T08:39:56.495Z,3.60
2023-03-21T08:40:58.550Z,3.70
2023-03-21T08:41:56.448Z,4.10
2023-03-21T08:42:56.390Z,3.80
2023-03-21T08:43:56.382Z,3.90
2023-03-21T08:44:56.374Z,4.20
2023-03-21T08:45:56.389Z,4.40
2023-03-21T08:46:56.341Z,4.30
2023-03-21T08:47:56.434Z,4.10
2023-03-21T08:48:56.311Z,4.20
2023-03-21T08:49:59.032Z,4.10
2023-03-21T08:50:56.289Z,4.10
2023-03-21T08:51:56.278Z,4.10
2023-03-21T08:52:56.268Z,4.20
2023-03-21T08:53:56.251Z,3.70
2023-03-21T08:54:56.236Z,3.90
2023-03-21T08:55:56.237Z,3.70
2023-03-21T08:56:56.213Z,3.70
2023-03-21T08:57:56.244Z,3.70
2023-03-21T08:58:56.184Z,4.10
2023-03-21T08:59:56.182Z,4.30
2023-03-21T09:00:56.170Z,3.80
2023-03-21T09:01:56.163Z,4.30
2023-03-21T09:02:56.166Z,4.40
2023-03-21T09:03:56.121Z,4.00
2023-03-21T09:04:56.223Z,4.20
2023-03-21T09:05:56.124Z,4.50
2023-03-21T09:06:56.084Z,4.00
2023-03-21T09:07:56.076Z,4.10
2023-03-21T09:08:56.054Z,4.00
2023-03-21T09:10:15.056Z,4.40
2023-03-21T09:10:56.043Z,4.40
2023-03-21T09:11:56.005Z,3.60
2023-03-21T09:12:56.014Z,3.90
2023-03-21T09:13:55.988Z,3.90
2023-03-21T09:14:55.961Z,4.10
2023-03-21T09:15:55.994Z,4.20
2023-03-21T09:16:55.940Z,3.90
2023-03-21T09:17:55.933Z,4.30
2023-03-21T09:18:55.917Z,4.00
2023-03-21T09:19:55.902Z,4.30
2023-03-21T09:20:55.900Z,4.10
2023-03-21T09:21:55.898Z,4.20
2023-03-21T09:22:55.856Z,4.30
2023-03-21T09:23:55.861Z,3.90
2023-03-21T09:24:55.824Z,4.30
2023-03-21T09:25:55.832Z,3.90
2023-03-21T09:26:55.795Z,4.20
2023-03-21T09:27:55.809Z,4.40
2023-03-21T09:28:55.772Z,4.20
2023-03-21T09:29:55.758Z,4.30
2023-03-21T09:30:55.803Z,4.20
2023-03-21T09:31:55.742Z,4.20
2023-03-21T09:32:56.028Z,4.60
2023-03-21T09:33:55.712Z,3.90
2023-03-21T09:34:55.691Z,4.10
2023-03-21T09:35:55.712Z,4.10
2023-03-21T09:36:55.662Z,4.30
2023-03-21T09:37:55.669Z,4.10
2023-03-21T09:38:55.639Z,4.20
2023-03-21T09:39:55.660Z,3.90
2023-03-21T09:40:55.622Z,4.30
2023-03-21T09:41:55.597Z,4.70
2023-03-21T09:42:55.586Z,4.60
2023-03-21T09:43:55.568Z,4.90
2023-03-21T09:44:55.554Z,4.20
2023-03-21T09:45:55.563Z,4.20
2023-03-21T09:46:55.614Z,4.50
2023-03-21T09:47:55.547Z,4.30
2023-03-21T09:48:57.499Z,4.40
2023-03-21T09:50:01.707Z,4.20
2023-03-21T09:50:55.508Z,4.60
2023-03-21T09:51:55.460Z,4.10
2023-03-21T09:52:55.450Z,4.30
2023-03-21T09:53:57.150Z,4.30
2023-03-21T09:54:55.419Z,4.10
2023-03-21T09:55:55.433Z,4.30
2023-03-21T09:56:55.394Z,4.60
2023-03-21T09:57:55.381Z,4.00
2023-03-21T09:58:55.374Z,4.40
2023-03-21T09:59:55.359Z,4.50
2023-03-21T10:00:55.388Z,4.70
2023-03-21T10:01:55.344Z,4.40
2023-03-21T10:02:57.438Z,4.10
2023-03-21T10:03:55.304Z,4.30
2023-03-21T10:04:55.345Z,4.20
2023-03-21T10:05:55.297Z,4.10
2023-03-21T10:06:55.266Z,4.30
2023-03-21T10:07:55.247Z,4.40
2023-03-21T10:08:57.087Z,4.30
2023-03-21T10:09:55.245Z,4.50
2023-03-21T10:10:55.222Z,4.10
2023-03-21T10:11:55.196Z,4.00
2023-03-21T10:12:55.181Z,4.30
2023-03-21T10:13:55.169Z,4.00
2023-03-21T10:14:57.550Z,4.20
2023-03-21T10:15:55.150Z,4.10
2023-03-21T10:16:55.128Z,4.10
2023-03-21T10:17:55.108Z,4.00
2023-03-21T10:18:55.098Z,4.10
2023-03-21T10:19:55.084Z,4.40
2023-03-21T10:20:55.080Z,4.40
2023-03-21T10:22:03.832Z,4.10
2023-03-21T10:22:56.072Z,4.10
2023-03-21T10:23:55.030Z,4.40
2023-03-21T10:24:55.010Z,4.60
2023-03-21T10:25:55.156Z,4.20
2023-03-21T10:26:54.990Z,4.10
2023-03-21T10:27:54.975Z,4.10
2023-03-21T10:28:54.982Z,4.00
2023-03-21T10:29:54.948Z,3.90
2023-03-21T10:30:54.963Z,3.90
2023-03-21T10:31:55.023Z,3.80
2023-03-21T10:32:54.983Z,4.00
2023-03-21T10:33:54.912Z,4.30
2023-03-21T10:35:54.948Z,4.20
2023-03-21T10:36:54.971Z,3.90
2023-03-21T10:37:54.853Z,4.20
2023-03-21T10:38:54.841Z,4.30
2023-03-21T10:39:54.828Z,4.30
2023-03-21T10:40:54.828Z,3.60
2023-03-21T10:41:54.833Z,4.00
2023-03-21T10:42:54.782Z,4.00
2023-03-21T10:43:54.768Z,4.10
2023-03-21T10:44:54.759Z,4.00
2023-03-21T10:45:55.024Z,4.10
2023-03-21T10:46:55.100Z,4.10
2023-03-21T10:47:54.931Z,4.10
2023-03-21T10:48:54.751Z,3.70
2023-03-21T10:50:10.979Z,4.10
2023-03-21T10:50:55.792Z,3.90
2023-03-21T10:51:54.678Z,4.00
2023-03-21T10:52:54.648Z,3.60
2023-03-21T10:53:54.636Z,4.00
2023-03-21T10:54:54.620Z,3.50
2023-03-21T10:55:54.610Z,3.60
2023-03-21T10:56:54.606Z,3.60
2023-03-21T10:57:54.598Z,3.80
2023-03-21T10:58:54.576Z,3.80
2023-03-21T10:59:54.562Z,3.50
2023-03-21T11:00:54.560Z,3.50
2023-03-21T11:01:54.636Z,3.50
2023-03-21T11:02:54.624Z,3.40
2023-03-21T11:03:54.502Z,3.60
2023-03-21T11:04:54.490Z,3.20
2023-03-21T11:05:54.475Z,3.60
2023-03-21T11:06:54.480Z,3.50
2023-03-21T11:07:54.442Z,3.40
2023-03-21T11:08:54.449Z,3.40
2023-03-21T11:09:54.425Z,3.40
2023-03-21T11:10:54.412Z,3.40
2023-03-21T11:11:54.404Z,3.40
2023-03-21T11:12:54.376Z,3.50
2023-03-21T11:13:54.385Z,4.10
2023-03-21T11:14:54.358Z,3.50
2023-03-21T11:15:54.341Z,3.90
2023-03-21T11:16:54.383Z,4.00
2023-03-21T11:17:54.313Z,3.90
2023-03-21T11:18:54.305Z,3.70
2023-03-21T11:19:54.290Z,3.40
2023-03-21T11:20:54.289Z,3.60
2023-03-21T11:21:54.280Z,3.90
2023-03-21T11:22:54.254Z,3.80
2023-03-21T11:23:54.278Z,3.80
2023-03-21T11:24:54.229Z,3.80
2023-03-21T11:25:54.213Z,3.90
2023-03-21T11:26:54.234Z,3.70
2023-03-21T11:27:54.201Z,3.90
2023-03-21T11:28:54.176Z,3.80
2023-03-21T11:29:54.191Z,3.60
2023-03-21T11:30:54.275Z,4.00
2023-03-21T11:31:54.147Z,4.00
2023-03-21T11:32:54.126Z,4.30
2023-03-21T11:33:54.103Z,4.20
2023-03-21T11:34:54.102Z,4.10
2023-03-21T11:35:54.101Z,4.40
2023-03-21T11:36:54.085Z,4.30
2023-03-21T11:37:54.052Z,4.00
2023-03-21T11:38:54.056Z,4.20
2023-03-21T11:39:54.045Z,4.20
2023-03-21T11:40:54.031Z,4.00
2023-03-21T11:41:54.027Z,3.90
2023-03-21T11:42:54.009Z,4.00
2023-03-21T11:43:53.986Z,4.70
2023-03-21T11:44:53.963Z,4.60
2023-03-21T11:45:53.993Z,4.10
2023-03-21T11:46:54.456Z,4.70
2023-03-21T11:47:53.962Z,4.30
2023-03-21T11:48:53.909Z,4.60
2023-03-21T11:50:01.736Z,4.70
2023-03-21T11:50:54.883Z,4.70
2023-03-21T11:51:53.891Z,4.90
2023-03-21T11:52:53.867Z,4.90
2023-03-21T11:53:53.872Z,5.00
2023-03-21T11:54:53.843Z,4.60
2023-03-21T11:55:53.813Z,4.50
2023-03-21T11:56:53.838Z,4.60
2023-03-21T11:57:54.840Z,4.80
2023-03-21T11:58:53.800Z,4.60
2023-03-21T11:59:53.777Z,4.80
2023-03-21T12:00:53.755Z,4.70
2023-03-21T12:01:53.770Z,4.90
2023-03-21T12:02:53.814Z,4.80
2023-03-21T12:03:55.009Z,4.70
2023-03-21T12:04:53.701Z,4.90
2023-03-21T12:05:53.691Z,4.90
2023-03-21T12:06:53.691Z,5.10
2023-03-21T12:07:53.658Z,4.80
2023-03-21T12:08:53.644Z,4.90
2023-03-21T12:09:53.644Z,4.90
2023-03-21T12:10:53.626Z,4.60
2023-03-21T12:11:53.630Z,4.80
2023-03-21T12:12:53.593Z,5.00
2023-03-21T12:13:53.577Z,5.30
2023-03-21T12:14:53.573Z,5.50
2023-03-21T12:15:55.421Z,5.10
2023-03-21T12:16:55.016Z,5.30
2023-03-21T12:17:53.547Z,5.00
2023-03-21T12:18:53.511Z,4.70
2023-03-21T12:19:53.596Z,4.90
2023-03-21T12:20:53.488Z,4.80
2023-03-21T12:21:54.835Z,4.00
2023-03-21T12:22:53.496Z,4.10
2023-03-21T12:23:53.439Z,4.60
2023-03-21T12:24:53.435Z,5.00
2023-03-21T12:25:53.414Z,4.90
2023-03-21T12:26:53.418Z,4.90
2023-03-21T12:27:53.411Z,4.80
2023-03-21T12:28:53.385Z,4.70
2023-03-21T12:29:53.367Z,5.10
2023-03-21T12:30:53.353Z,4.50
2023-03-21T12:31:53.479Z,5.00
2023-03-21T12:32:53.343Z,4.30
2023-03-21T12:33:53.434Z,5.00
2023-03-21T12:34:53.302Z,5.10
2023-03-21T12:35:53.325Z,5.30
2023-03-21T12:36:53.274Z,6.30
2023-03-21T12:37:54.986Z,4.90
2023-03-21T12:38:53.245Z,5.20
2023-03-21T12:39:53.231Z,5.10
2023-03-21T12:40:53.240Z,5.10
2023-03-21T12:41:53.221Z,4.80
2023-03-21T12:42:53.219Z,4.90
2023-03-21T12:43:55.278Z,4.50
2023-03-21T12:44:53.165Z,4.80
2023-03-21T12:45:53.210Z,6.20
2023-03-21T12:46:53.216Z,4.80
2023-03-21T12:47:53.214Z,5.40
2023-03-21T12:48:53.109Z,5.10
2023-03-21T12:49:55.168Z,4.80
2023-03-21T12:50:53.083Z,4.80
2023-03-21T12:51:53.070Z,4.20
2023-03-21T12:52:53.078Z,4.60
2023-03-21T12:53:53.054Z,4.70
2023-03-21T12:54:53.029Z,4.50
2023-03-21T12:55:53.018Z,4.30
2023-03-21T12:56:53.004Z,4.60
2023-03-21T12:57:57.448Z,4.40
2023-03-21T12:58:52.976Z,4.50
2023-03-21T12:59:52.966Z,5.30
2023-03-21T13:00:53.005Z,4.50
2023-03-21T13:01:52.932Z,4.30
2023-03-21T13:02:52.950Z,4.30
2023-03-21T13:03:53.009Z,4.20
2023-03-21T13:04:52.895Z,3.80
2023-03-21T13:05:53.004Z,3.70
2023-03-21T13:06:52.872Z,3.50
2023-03-21T13:07:52.877Z,3.90
2023-03-21T13:08:52.849Z,3.60
2023-03-21T13:09:52.828Z,3.60
2023-03-21T13:10:52.817Z,3.60
2023-03-21T13:11:52.799Z,3.60
2023-03-21T13:12:52.810Z,3.50
2023-03-21T13:13:52.785Z,3.50
2023-03-21T13:14:53.731Z,3.30
2023-03-21T13:15:52.869Z,3.60
2023-03-21T13:16:54.119Z,3.70
2023-03-21T13:17:52.834Z,3.60
2023-03-21T13:18:52.708Z,4.00
2023-03-21T13:19:52.705Z,3.80
2023-03-21T13:20:52.685Z,3.60
2023-03-21T13:21:52.819Z,3.50